Time;durP1;ratioP1;P1;durP2;ratioP2;P2;SDS_P1;SDS_P2;PMS_P1;PMS_P2;Temp;Humidity;BMP_temperature;BMP_pressure;BME280_temperature;BME280_humidity;BME280_pressure;Samples;Min_cycle;Max_cycle;Signal;HPM_P1;HPM_P2
2023/04/14 00:00:58;;;;;;;6.80;6.23;;;8.30;66.80;;;;;;6284218;28;20279;-79
2023/04/14 00:04:02;;;;;;;7.03;6.40;;;8.40;66.70;;;;;;6287833;28;20247;-84
2023/04/14 00:07:05;;;;;;;7.33;6.70;;;8.40;66.70;;;;;;6283166;28;20636;-81
2023/04/14 00:10:09;;;;;;;7.40;6.70;;;8.40;66.60;;;;;;6285426;28;20235;-82
2023/04/14 00:13:12;;;;;;;6.27;5.97;;;8.40;66.60;;;;;;6285770;28;20244;-80
2023/04/14 00:16:16;;;;;;;6.50;6.10;;;8.40;66.50;;;;;;6290953;28;20624;-79
2023/04/14 00:19:19;;;;;;;6.10;5.70;;;8.40;66.40;;;;;;6294963;28;20310;-81
2023/04/14 00:22:23;;;;;;;6.70;6.30;;;8.40;66.40;;;;;;6286949;28;20561;-83
2023/04/14 00:25:26;;;;;;;6.50;6.10;;;8.50;66.30;;;;;;6280863;28;20242;-81
2023/04/14 00:28:29;;;;;;;5.73;5.43;;;8.50;66.40;;;;;;6286388;28;20626;-79
2023/04/14 00:31:34;;;;;;;6.00;5.60;;;8.50;66.30;;;;;;6286486;28;20241;-79
2023/04/14 00:34:37;;;;;;;6.30;5.80;;;8.50;66.20;;;;;;6284557;28;20233;-83
2023/04/14 00:37:40;;;;;;;6.83;5.70;;;8.50;66.10;;;;;;6271483;28;20256;-83
2023/04/14 00:40:43;;;;;;;6.23;5.73;;;8.50;66.00;;;;;;6287503;28;20237;-81
2023/04/14 00:43:47;;;;;;;6.17;5.87;;;8.50;66.00;;;;;;6287390;28;20229;-81
2023/04/14 00:46:51;;;;;;;6.27;5.87;;;8.50;65.90;;;;;;6290086;28;20239;-77
2023/04/14 00:49:55;;;;;;;7.40;6.80;;;8.60;65.90;;;;;;6317865;28;20222;-78
2023/04/14 00:52:58;;;;;;;7.00;6.47;;;8.60;65.70;;;;;;6315444;28;20233;-78
2023/04/14 00:56:01;;;;;;;7.30;6.90;;;8.60;65.60;;;;;;6314479;28;20213;-80
2023/04/14 00:59:06;;;;;;;8.63;6.93;;;8.60;65.60;;;;;;6307161;28;20312;-83
2023/04/14 01:02:12;;;;;;;6.80;6.27;;;8.60;65.60;;;;;;6282523;28;20533;-82
2023/04/14 01:05:15;;;;;;;7.50;6.93;;;8.60;65.70;;;;;;6285401;28;20282;-83
2023/04/14 01:08:20;;;;;;;6.97;6.47;;;8.60;65.80;;;;;;6284639;28;20248;-82
2023/04/14 01:11:30;;;;;;;6.80;6.37;;;8.60;65.80;;;;;;6283388;28;20241;-84
2023/04/14 01:14:44;;;;;;;6.90;6.40;;;8.60;66.00;;;;;;6275581;28;20241;-81
2023/04/14 01:17:54;;;;;;;6.07;5.77;;;8.60;66.10;;;;;;6285110;28;20600;-79
2023/04/14 01:21:04;;;;;;;6.20;5.87;;;8.60;66.30;;;;;;6294389;28;20241;-83
2023/04/14 01:24:30;;;;;;;5.90;5.50;;;8.60;66.40;;;;;;6292211;28;20710;-83
2023/04/14 01:27:43;;;;;;;6.93;6.33;;;8.60;66.40;;;;;;6302818;28;20262;-82
2023/04/14 01:31:05;;;;;;;6.77;6.27;;;8.60;66.40;;;;;;6278624;28;20234;-84
2023/04/14 01:34:14;;;;;;;7.57;6.90;;;8.60;66.50;;;;;;6285759;28;20241;-83
2023/04/14 01:37:23;;;;;;;7.70;7.00;;;8.60;66.50;;;;;;6292499;28;20221;-81
2023/04/14 01:40:30;;;;;;;8.10;7.60;;;8.60;66.40;;;;;;6277670;28;20747;-82
2023/04/14 01:43:37;;;;;;;9.77;8.87;;;8.60;66.40;;;;;;6277801;28;20237;-81
2023/04/14 01:46:42;;;;;;;9.73;8.83;;;8.60;66.40;;;;;;6292169;28;20241;-82
2023/04/14 01:49:52;;;;;;;9.50;8.77;;;8.60;66.40;;;;;;6299204;28;20740;-82
2023/04/14 01:52:57;;;;;;;8.33;7.73;;;8.60;66.40;;;;;;6285285;28;20705;-81
2023/04/14 01:56:01;;;;;;;8.23;7.53;;;8.60;66.30;;;;;;6281677;28;20230;-81
2023/04/14 01:59:05;;;;;;;7.83;7.33;;;8.60;66.30;;;;;;6295971;28;20240;-82
2023/04/14 02:02:10;;;;;;;7.87;7.30;;;8.60;66.40;;;;;;6290111;28;20343;-83
2023/04/14 02:05:17;;;;;;;7.43;6.83;;;8.50;66.40;;;;;;6285198;28;20225;-82
2023/04/14 02:08:22;;;;;;;6.90;6.33;;;8.60;66.40;;;;;;6289130;28;20236;-81
2023/04/14 02:11:27;;;;;;;7.80;7.17;;;8.50;66.50;;;;;;6297065;28;20728;-82
2023/04/14 02:14:31;;;;;;;7.87;7.30;;;8.50;66.70;;;;;;6288927;28;20255;-81
2023/04/14 02:17:35;;;;;;;7.30;6.60;;;8.50;66.60;;;;;;6297118;28;20812;-83
2023/04/14 02:20:43;;;;;;;7.77;7.13;;;8.60;66.50;;;;;;6297749;28;20236;-83
2023/04/14 02:23:46;;;;;;;6.77;6.30;;;8.60;66.40;;;;;;6295543;28;20681;-82
2023/04/14 02:26:57;;;;;;;6.73;6.33;;;8.50;66.40;;;;;;6329079;28;20284;-79
2023/04/14 02:30:08;;;;;;;6.87;6.37;;;8.50;66.50;;;;;;6317330;28;20218;-78
2023/04/14 02:33:16;;;;;;;8.67;7.83;;;8.50;66.50;;;;;;6325939;28;20265;-77
2023/04/14 02:36:25;;;;;;;6.43;6.10;;;8.50;66.50;;;;;;6335372;28;20262;-78
2023/04/14 02:39:31;;;;;;;7.50;6.90;;;8.50;66.60;;;;;;6323842;28;20237;-79
2023/04/14 02:42:36;;;;;;;7.23;6.67;;;8.50;66.50;;;;;;6314737;28;20221;-77
2023/04/14 02:45:42;;;;;;;6.07;5.73;;;8.50;66.60;;;;;;6320770;28;20233;-83
2023/04/14 02:48:47;;;;;;;5.93;5.63;;;8.50;66.70;;;;;;6298199;28;20560;-82
2023/04/14 02:51:53;;;;;;;7.30;6.67;;;8.40;66.90;;;;;;6290989;28;20259;-80
2023/04/14 02:54:57;;;;;;;6.97;6.57;;;8.40;67.00;;;;;;6284985;28;20548;-82
2023/04/14 02:58:01;;;;;;;6.57;6.00;;;8.40;67.00;;;;;;6287433;28;20245;-80
2023/04/14 03:01:04;;;;;;;7.53;6.90;;;8.40;67.00;;;;;;6308471;28;20320;-83
2023/04/14 03:04:08;;;;;;;6.87;6.47;;;8.40;67.10;;;;;;6295231;28;20773;-83
2023/04/14 03:07:14;;;;;;;6.57;6.10;;;8.40;67.20;;;;;;6285670;28;20371;-82
2023/04/14 03:10:18;;;;;;;7.27;6.70;;;8.40;67.20;;;;;;6293789;28;20251;-81
2023/04/14 03:13:25;;;;;;;7.60;7.00;;;8.50;67.30;;;;;;6318410;28;20252;-78
2023/04/14 03:16:29;;;;;;;8.30;7.70;;;8.50;67.50;;;;;;6317858;28;20233;-77
2023/04/14 03:19:33;;;;;;;6.50;6.10;;;8.50;68.70;;;;;;6328406;28;20255;-76
2023/04/14 03:22:40;;;;;;;6.80;6.33;;;8.40;68.90;;;;;;6311922;28;20221;-76
2023/04/14 03:25:44;;;;;;;6.03;5.60;;;8.40;69.90;;;;;;6322457;28;20221;-79
2023/04/14 03:28:52;;;;;;;6.10;5.77;;;8.40;69.90;;;;;;6323753;28;20300;-79
2023/04/14 03:31:58;;;;;;;7.03;6.53;;;8.40;70.50;;;;;;6284770;28;20264;-83
2023/04/14 03:35:03;;;;;;;7.37;6.87;;;8.40;70.70;;;;;;6287244;28;20287;-83
2023/04/14 03:38:09;;;;;;;7.50;7.00;;;8.40;71.40;;;;;;6286934;28;20236;-82
2023/04/14 03:41:14;;;;;;;6.77;6.47;;;8.30;71.60;;;;;;6286433;28;20313;-81
2023/04/14 03:44:19;;;;;;;7.80;7.17;;;8.30;71.70;;;;;;6284935;28;20491;-83
2023/04/14 03:47:25;;;;;;;6.53;6.13;;;8.30;72.30;;;;;;6302120;28;20248;-81
2023/04/14 03:50:32;;;;;;;7.40;6.80;;;8.30;72.20;;;;;;6283895;28;20720;-79
2023/04/14 03:53:39;;;;;;;6.87;6.50;;;8.30;72.20;;;;;;6293416;28;20543;-81
2023/04/14 03:56:46;;;;;;;6.87;6.47;;;8.30;72.00;;;;;;6288880;28;20744;-78
2023/04/14 03:59:51;;;;;;;6.77;6.37;;;8.30;71.90;;;;;;6289014;28;20379;-81
2023/04/14 04:02:54;;;;;;;6.73;6.20;;;8.30;72.00;;;;;;6285869;28;20605;-79
2023/04/14 04:05:58;;;;;;;6.13;5.83;;;8.30;72.10;;;;;;6286326;28;20229;-79
2023/04/14 04:09:05;;;;;;;5.77;5.60;;;8.30;72.20;;;;;;6278252;28;20229;-80
2023/04/14 04:12:11;;;;;;;6.40;6.10;;;8.30;72.30;;;;;;6284504;28;20233;-79
2023/04/14 04:15:14;;;;;;;6.37;6.00;;;8.30;72.40;;;;;;6282796;28;20762;-80
2023/04/14 04:18:21;;;;;;;6.23;5.83;;;8.30;72.40;;;;;;6285902;28;20229;-80
2023/04/14 04:21:28;;;;;;;6.20;5.90;;;8.30;72.50;;;;;;6284773;28;20261;-80
2023/04/14 04:24:40;;;;;;;6.10;5.90;;;8.30;72.50;;;;;;6278871;28;20234;-82
2023/04/14 04:27:43;;;;;;;5.93;5.63;;;8.30;72.50;;;;;;6283284;28;20256;-81
2023/04/14 04:30:47;;;;;;;5.80;5.40;;;8.20;72.50;;;;;;6286149;28;20840;-78
2023/04/14 04:33:51;;;;;;;5.77;5.47;;;8.20;72.50;;;;;;6282453;28;20246;-80
2023/04/14 04:36:54;;;;;;;6.63;5.53;;;8.20;72.40;;;;;;6285990;28;20289;-80
2023/04/14 04:39:59;;;;;;;5.23;5.10;;;8.20;72.40;;;;;;6282684;28;20233;-80
2023/04/14 04:43:02;;;;;;;5.50;5.20;;;8.20;72.40;;;;;;6276805;28;20751;-81
2023/04/14 04:46:29;;;;;;;5.80;5.40;;;8.20;72.40;;;;;;6287450;28;20783;-82
2023/04/14 04:49:32;;;;;;;6.70;5.97;;;8.20;72.50;;;;;;6285158;28;20248;-80
2023/04/14 04:52:35;;;;;;;5.93;5.60;;;8.20;72.50;;;;;;6285329;28;20234;-80
2023/04/14 04:55:40;;;;;;;6.13;5.73;;;8.20;72.50;;;;;;6282277;28;20233;-81
2023/04/14 04:58:43;;;;;;;5.87;5.57;;;8.20;72.50;;;;;;6278125;28;20589;-78
2023/04/14 05:01:47;;;;;;;5.47;5.17;;;8.20;72.60;;;;;;6292083;28;20390;-80
2023/04/14 05:04:50;;;;;;;6.23;5.97;;;8.20;72.60;;;;;;6279878;28;20239;-81
2023/04/14 05:07:53;;;;;;;5.70;5.50;;;8.20;72.60;;;;;;6280147;28;20253;-80
2023/04/14 05:10:58;;;;;;;6.40;6.00;;;8.30;72.70;;;;;;6278247;28;20234;-83
2023/04/14 05:14:01;;;;;;;5.70;5.50;;;8.30;72.70;;;;;;6296441;28;20251;-80
2023/04/14 05:17:04;;;;;;;6.10;5.80;;;8.30;72.70;;;;;;6289474;28;20237;-82
2023/04/14 05:20:08;;;;;;;6.40;6.00;;;8.30;72.70;;;;;;6288925;28;20276;-79
2023/04/14 05:23:12;;;;;;;5.40;5.20;;;8.30;72.60;;;;;;6280862;28;20225;-81
2023/04/14 05:26:16;;;;;;;6.00;5.70;;;8.30;72.50;;;;;;6284169;28;20225;-79
2023/04/14 05:29:22;;;;;;;7.60;7.00;;;8.40;72.50;;;;;;6286620;28;20714;-81
2023/04/14 05:32:27;;;;;;;7.00;6.57;;;8.40;72.40;;;;;;6293894;28;20303;-77
2023/04/14 05:35:31;;;;;;;7.50;7.00;;;8.40;72.30;;;;;;6322384;28;20228;-79
2023/04/14 05:38:37;;;;;;;7.53;6.80;;;8.40;72.30;;;;;;6311309;28;20240;-78
2023/04/14 05:41:44;;;;;;;7.40;7.00;;;8.40;72.40;;;;;;6306230;28;20256;-75
2023/04/14 05:44:47;;;;;;;6.47;6.00;;;8.50;72.20;;;;;;6307519;28;20328;-80
2023/04/14 05:47:50;;;;;;;6.27;5.97;;;8.40;72.10;;;;;;6292152;28;20258;-81
2023/04/14 05:50:53;;;;;;;7.10;6.70;;;8.50;72.00;;;;;;6289528;28;20313;-81
2023/04/14 05:53:56;;;;;;;7.70;7.20;;;8.50;72.00;;;;;;6288094;28;20368;-82
2023/04/14 05:57:01;;;;;;;7.53;6.93;;;8.50;72.20;;;;;;6289580;28;20236;-81
2023/04/14 06:00:05;;;;;;;7.70;7.10;;;8.50;72.20;;;;;;6292182;28;20805;-78
2023/04/14 06:03:08;;;;;;;6.70;6.30;;;8.50;72.20;;;;;;6292857;28;20700;-81
2023/04/14 06:06:12;;;;;;;7.43;7.03;;;8.50;72.20;;;;;;6289848;28;20320;-81
2023/04/14 06:09:15;;;;;;;7.43;6.73;;;8.60;72.20;;;;;;6288743;28;20732;-81
2023/04/14 06:12:20;;;;;;;7.27;6.77;;;8.60;72.30;;;;;;6288182;28;20387;-81
2023/04/14 06:15:25;;;;;;;7.30;6.87;;;8.60;72.20;;;;;;6289133;28;20607;-82
2023/04/14 06:18:29;;;;;;;7.90;7.23;;;8.60;72.20;;;;;;6293655;28;20233;-79
2023/04/14 06:21:32;;;;;;;6.77;6.37;;;8.70;72.10;;;;;;6288855;28;20263;-81
2023/04/14 06:24:35;;;;;;;7.13;6.77;;;8.70;72.00;;;;;;6289344;28;20234;-82
2023/04/14 06:27:39;;;;;;;7.40;6.83;;;8.80;72.10;;;;;;6283663;28;20832;-79
2023/04/14 06:30:42;;;;;;;6.80;6.50;;;8.80;72.20;;;;;;6288160;28;20248;-80
2023/04/14 06:33:45;;;;;;;6.83;6.50;;;8.80;72.10;;;;;;6287470;28;20229;-78
2023/04/14 06:36:49;;;;;;;7.23;6.83;;;8.90;72.20;;;;;;6280637;28;20229;-81
2023/04/14 06:39:52;;;;;;;6.13;5.83;;;8.90;72.20;;;;;;6285902;28;20251;-80
2023/04/14 06:42:57;;;;;;;8.30;7.77;;;8.90;72.20;;;;;;6292966;28;20233;-79
2023/04/14 06:46:00;;;;;;;7.47;6.97;;;9.00;72.10;;;;;;6290220;28;20233;-79
2023/04/14 06:49:03;;;;;;;8.03;7.30;;;9.00;72.10;;;;;;6289647;28;20234;-80
2023/04/14 06:52:06;;;;;;;6.97;6.57;;;9.00;72.20;;;;;;6304737;28;20244;-80
2023/04/14 06:55:10;;;;;;;7.83;7.33;;;9.00;72.30;;;;;;6288597;28;20523;-81
2023/04/14 06:58:14;;;;;;;8.40;7.50;;;9.10;72.20;;;;;;6288738;28;20266;-81
2023/04/14 07:01:17;;;;;;;8.47;7.67;;;9.20;72.10;;;;;;6290161;28;20260;-81
2023/04/14 07:04:22;;;;;;;6.90;6.60;;;9.20;72.00;;;;;;6287351;28;20237;-81
2023/04/14 07:07:25;;;;;;;7.57;6.97;;;9.30;72.00;;;;;;6286032;28;20265;-81
2023/04/14 07:10:28;;;;;;;8.07;7.40;;;9.40;71.80;;;;;;6294255;28;20232;-77
2023/04/14 07:13:33;;;;;;;7.77;7.17;;;9.40;71.80;;;;;;6294292;28;20222;-80
2023/04/14 07:16:36;;;;;;;8.57;7.87;;;9.50;71.70;;;;;;6301371;28;20238;-80
2023/04/14 07:19:39;;;;;;;8.30;7.60;;;9.50;71.50;;;;;;6289133;28;20367;-79
2023/04/14 07:22:42;;;;;;;9.13;8.43;;;9.50;71.50;;;;;;6287346;28;20351;-81
2023/04/14 07:25:50;;;;;;;8.57;7.97;;;9.60;71.50;;;;;;6288627;28;20246;-81
2023/04/14 07:28:55;;;;;;;7.80;7.10;;;9.60;71.20;;;;;;6291056;28;20237;-78
2023/04/14 07:31:59;;;;;;;9.10;8.23;;;9.50;71.10;;;;;;6286083;28;20242;-81
2023/04/14 07:35:02;;;;;;;8.07;7.47;;;9.50;70.90;;;;;;6295738;28;20688;-80
2023/04/14 07:38:06;;;;;;;7.77;7.17;;;9.50;71.30;;;;;;6287679;28;20244;-81
2023/04/14 07:41:09;;;;;;;9.40;8.70;;;9.50;71.30;;;;;;6289542;28;20816;-81
2023/04/14 07:44:14;;;;;;;9.40;8.60;;;9.50;71.30;;;;;;6290825;28;20369;-76
2023/04/14 07:47:17;;;;;;;9.47;8.67;;;9.50;71.40;;;;;;6281955;28;20235;-80
2023/04/14 07:50:20;;;;;;;8.17;7.67;;;9.60;71.50;;;;;;6292002;28;20229;-80
2023/04/14 07:53:24;;;;;;;8.53;7.83;;;9.60;71.40;;;;;;6294905;28;20300;-76
2023/04/14 07:56:27;;;;;;;8.93;8.13;;;9.60;71.50;;;;;;6314752;28;20274;-78
2023/04/14 07:59:32;;;;;;;9.07;8.47;;;9.60;71.60;;;;;;6318789;28;20233;-76
2023/04/14 08:02:35;;;;;;;8.27;7.63;;;9.60;71.90;;;;;;6340079;27;20228;-75
2023/04/14 08:05:39;;;;;;;9.30;8.70;;;9.60;71.80;;;;;;6313000;28;20716;-78
2023/04/14 08:08:42;;;;;;;8.07;7.37;;;9.60;72.10;;;;;;6286698;28;20236;-78
2023/04/14 08:11:45;;;;;;;8.27;7.67;;;9.60;71.50;;;;;;6287469;28;20241;-79
2023/04/14 08:14:49;;;;;;;7.80;7.10;;;9.50;71.80;;;;;;6292138;28;20620;-78
2023/04/14 08:17:52;;;;;;;7.50;6.93;;;9.40;71.70;;;;;;6287001;28;20743;-81
2023/04/14 08:20:56;;;;;;;8.87;7.40;;;9.50;71.40;;;;;;6287376;28;20237;-80
2023/04/14 08:23:59;;;;;;;6.97;6.47;;;9.50;71.30;;;;;;6284789;28;20380;-77
2023/04/14 08:27:02;;;;;;;6.23;5.93;;;9.50;71.20;;;;;;6287515;28;20737;-82
2023/04/14 08:30:08;;;;;;;7.27;6.67;;;9.50;71.20;;;;;;6292517;28;20253;-80
2023/04/14 08:33:13;;;;;;;6.50;6.07;;;9.50;71.10;;;;;;6267823;28;20282;-78
2023/04/14 08:36:16;;;;;;;6.53;6.10;;;9.50;71.30;;;;;;6286229;28;20267;-78
2023/04/14 08:39:19;;;;;;;6.87;6.37;;;9.50;71.20;;;;;;6288304;28;20316;-81
2023/04/14 08:42:23;;;;;;;7.40;6.90;;;9.50;71.40;;;;;;6287409;28;20504;-80
2023/04/14 08:45:28;;;;;;;5.83;5.53;;;9.50;71.10;;;;;;6290280;28;20611;-79
2023/04/14 08:48:32;;;;;;;7.23;6.77;;;9.50;71.00;;;;;;6284806;28;20233;-80
2023/04/14 08:51:36;;;;;;;6.97;6.47;;;9.50;71.50;;;;;;6283933;28;20248;-80
2023/04/14 08:54:40;;;;;;;6.00;5.70;;;9.70;70.70;;;;;;6283328;28;20264;-81
2023/04/14 08:57:45;;;;;;;6.77;6.33;;;9.70;70.90;;;;;;6286025;28;20237;-80
2023/04/14 09:00:51;;;;;;;6.90;6.40;;;9.70;71.20;;;;;;6282738;28;20229;-78
2023/04/14 09:03:55;;;;;;;7.20;6.70;;;9.60;70.80;;;;;;6281746;28;20240;-79
2023/04/14 09:07:01;;;;;;;6.87;6.30;;;9.50;71.50;;;;;;6285446;28;20245;-79
2023/04/14 09:10:05;;;;;;;6.73;6.33;;;9.50;71.90;;;;;;6282909;28;20501;-80
2023/04/14 09:13:14;;;;;;;7.37;6.87;;;9.50;71.80;;;;;;6305414;28;20237;-79
2023/04/14 09:16:19;;;;;;;7.10;6.50;;;9.50;72.00;;;;;;6294480;28;20350;-78
2023/04/14 09:19:24;;;;;;;6.67;6.27;;;9.40;72.00;;;;;;6291900;28;20238;-76
2023/04/14 09:22:27;;;;;;;6.77;6.37;;;9.50;72.00;;;;;;6285221;28;20277;-81
2023/04/14 09:25:30;;;;;;;7.30;6.90;;;9.40;72.40;;;;;;6285553;28;20328;-78
2023/04/14 09:28:34;;;;;;;7.73;7.13;;;9.20;72.90;;;;;;6281569;28;20248;-79
2023/04/14 09:31:38;;;;;;;7.23;6.70;;;9.20;73.20;;;;;;6284845;28;20494;-81
2023/04/14 09:34:51;;;;;;;8.60;7.97;;;9.20;73.50;;;;;;6282955;28;20506;-79
2023/04/14 09:37:57;;;;;;;7.87;7.27;;;9.20;74.00;;;;;;6281252;28;20310;-79
2023/04/14 09:41:00;;;;;;;7.80;7.20;;;9.20;74.30;;;;;;6285750;28;20814;-79
2023/04/14 09:44:08;;;;;;;8.27;7.77;;;9.30;74.30;;;;;;6286329;28;20237;-80
2023/04/14 09:47:15;;;;;;;8.67;7.97;;;9.40;73.90;;;;;;6286253;28;20253;-79
2023/04/14 09:50:18;;;;;;;8.90;8.20;;;9.30;74.20;;;;;;6303701;28;20233;-78
2023/04/14 09:53:25;;;;;;;8.57;8.00;;;9.40;74.00;;;;;;6292464;28;20239;-76
2023/04/14 09:56:29;;;;;;;9.27;8.53;;;9.20;74.10;;;;;;6287505;28;20233;-78
2023/04/14 09:59:33;;;;;;;8.40;8.00;;;9.20;74.90;;;;;;6295095;28;20241;-79
2023/04/14 10:02:54;;;;;;;9.00;8.30;;;9.30;74.70;;;;;;6282904;28;20601;-81
2023/04/14 10:06:03;;;;;;;10.47;9.47;;;9.30;74.80;;;;;;6277185;28;20225;-80
2023/04/14 10:09:07;;;;;;;8.67;8.00;;;9.40;74.70;;;;;;6279310;28;20234;-77
2023/04/14 10:12:12;;;;;;;8.87;8.17;;;9.40;74.50;;;;;;6300327;28;20245;-78
2023/04/14 10:15:16;;;;;;;8.93;8.03;;;9.40;74.50;;;;;;6310560;28;20492;-80
2023/04/14 10:18:23;;;;;;;8.80;8.03;;;9.40;74.50;;;;;;6310387;28;20237;-76
2023/04/14 10:21:29;;;;;;;8.40;7.60;;;9.40;74.10;;;;;;6323003;28;20248;-77
2023/04/14 10:24:33;;;;;;;7.93;7.47;;;9.40;74.10;;;;;;6306298;28;20625;-78
2023/04/14 10:27:37;;;;;;;8.53;7.93;;;9.30;74.10;;;;;;6298259;28;20237;-83
2023/04/14 10:30:42;;;;;;;8.87;8.17;;;9.30;74.50;;;;;;6295088;28;20320;-78
2023/04/14 10:33:47;;;;;;;8.60;8.10;;;9.20;75.10;;;;;;6290912;28;20713;-81
2023/04/14 10:36:50;;;;;;;11.20;8.40;;;9.00;75.40;;;;;;6287866;28;20244;-82
2023/04/14 10:39:59;;;;;;;8.83;8.10;;;9.00;75.20;;;;;;6285061;28;20324;-81
2023/04/14 10:43:11;;;;;;;9.43;8.73;;;9.00;75.00;;;;;;6287700;28;20230;-81
2023/04/14 10:46:14;;;;;;;8.33;7.83;;;9.00;75.60;;;;;;6287452;28;20238;-79
2023/04/14 10:49:29;;;;;;;8.37;7.77;;;9.20;75.40;;;;;;6297370;28;20237;-80
2023/04/14 10:52:32;;;;;;;8.27;7.67;;;9.40;74.90;;;;;;6287988;28;20318;-80
2023/04/14 10:55:45;;;;;;;7.97;7.47;;;9.20;74.90;;;;;;6282677;28;20312;-78
2023/04/14 10:58:55;;;;;;;8.93;8.03;;;9.20;74.90;;;;;;6287084;28;20305;-80
2023/04/14 11:01:59;;;;;;;7.90;7.40;;;9.10;75.30;;;;;;6289997;28;20237;-79
2023/04/14 11:05:07;;;;;;;8.90;8.10;;;9.00;75.40;;;;;;6280557;28;20236;-79
2023/04/14 11:08:15;;;;;;;9.03;8.10;;;9.00;75.70;;;;;;6286318;28;20437;-80
2023/04/14 11:11:18;;;;;;;7.83;7.33;;;9.00;75.60;;;;;;6291385;28;20319;-79
2023/04/14 11:14:26;;;;;;;8.97;8.27;;;8.90;75.70;;;;;;6292837;28;20791;-79
2023/04/14 11:17:31;;;;;;;8.30;7.80;;;8.90;75.80;;;;;;6287433;28;20270;-80
2023/04/14 11:20:40;;;;;;;8.43;7.90;;;8.80;75.80;;;;;;6279472;28;20243;-81
2023/04/14 11:23:44;;;;;;;7.97;7.37;;;8.80;76.00;;;;;;6288149;28;20229;-82
2023/04/14 11:26:47;;;;;;;9.33;8.50;;;8.90;76.00;;;;;;6289565;28;20517;-78
2023/04/14 11:29:50;;;;;;;9.43;8.63;;;8.90;75.90;;;;;;6294638;28;20720;-79
2023/04/14 11:32:56;;;;;;;10.13;8.70;;;8.90;75.80;;;;;;6286956;28;20234;-79
2023/04/14 11:36:02;;;;;;;9.03;8.13;;;9.00;76.00;;;;;;6288367;28;20356;-77
2023/04/14 11:39:05;;;;;;;8.57;7.93;;;9.00;76.00;;;;;;6279643;28;20331;-80
2023/04/14 11:42:08;;;;;;;9.43;8.67;;;9.00;76.00;;;;;;6321612;27;20259;-79
2023/04/14 11:45:14;;;;;;;8.03;7.53;;;8.90;76.20;;;;;;6289938;28;20229;-79
2023/04/14 11:48:20;;;;;;;8.57;7.87;;;8.90;76.40;;;;;;6284954;28;20232;-77
2023/04/14 11:51:31;;;;;;;9.60;8.80;;;8.90;76.40;;;;;;6293786;28;20917;-80
2023/04/14 11:54:38;;;;;;;7.90;7.40;;;8.90;76.20;;;;;;6288625;28;20487;-79
2023/04/14 11:57:44;;;;;;;8.60;8.00;;;8.90;76.30;;;;;;6286350;28;20233;-79
2023/04/14 12:00:49;;;;;;;8.37;7.77;;;8.90;76.20;;;;;;6284134;28;20234;-79
2023/04/14 12:03:54;;;;;;;7.90;7.50;;;8.80;76.10;;;;;;6292368;28;20225;-78
2023/04/14 12:06:59;;;;;;;7.73;7.13;;;8.80;76.50;;;;;;6315338;28;20392;-77
2023/04/14 12:10:05;;;;;;;6.80;6.40;;;8.90;75.90;;;;;;6318515;28;20214;-76
2023/04/14 12:13:10;;;;;;;7.17;6.77;;;8.70;75.50;;;;;;6323527;28;20319;-75
2023/04/14 12:16:13;;;;;;;8.57;7.90;;;8.70;75.50;;;;;;6316996;28;20825;-78
2023/04/14 12:19:17;;;;;;;7.53;7.13;;;8.60;76.20;;;;;;6318747;28;20225;-77
2023/04/14 12:22:26;;;;;;;8.03;7.33;;;8.60;76.30;;;;;;6326499;28;20228;-78
2023/04/14 12:25:32;;;;;;;7.67;7.17;;;8.60;76.10;;;;;;6318662;28;20247;-75
2023/04/14 12:28:37;;;;;;;8.23;7.47;;;8.60;76.00;;;;;;6315040;28;20243;-76
2023/04/14 12:31:43;;;;;;;7.93;7.30;;;8.60;76.00;;;;;;6316845;28;20225;-76
2023/04/14 12:34:54;;;;;;;7.70;7.20;;;8.70;75.90;;;;;;6308860;28;20236;-77
2023/04/14 12:37:58;;;;;;;7.80;7.30;;;8.60;76.00;;;;;;6326173;28;20224;-75
2023/04/14 12:41:02;;;;;;;7.60;7.17;;;8.60;76.20;;;;;;6315400;28;20239;-79
2023/04/14 12:44:15;;;;;;;7.50;7.00;;;8.70;75.50;;;;;;6313447;28;20241;-78
2023/04/14 12:47:28;;;;;;;7.33;6.83;;;8.60;76.00;;;;;;6309146;28;20255;-75
2023/04/14 12:50:32;;;;;;;8.23;7.43;;;8.60;76.20;;;;;;6311686;28;20232;-77
2023/04/14 12:53:40;;;;;;;7.80;7.10;;;8.60;75.90;;;;;;6316312;28;20225;-77
2023/04/14 12:56:43;;;;;;;7.20;6.80;;;8.60;76.20;;;;;;6317901;28;20296;-75
2023/04/14 12:59:46;;;;;;;8.13;7.43;;;8.60;76.30;;;;;;6326722;28;20247;-75
2023/04/14 13:02:49;;;;;;;8.37;7.77;;;8.80;76.10;;;;;;6312192;28;20249;-75
2023/04/14 13:05:54;;;;;;;7.57;7.07;;;8.60;76.40;;;;;;6326739;28;20217;-73
2023/04/14 13:08:58;;;;;;;7.97;7.37;;;8.70;76.50;;;;;;6318456;28;20248;-79
2023/04/14 13:12:02;;;;;;;6.93;6.50;;;8.80;76.20;;;;;;6312929;28;20256;-78
2023/04/14 13:15:07;;;;;;;7.40;6.90;;;8.80;75.80;;;;;;6320405;28;20304;-77
2023/04/14 13:18:29;;;;;;;9.37;8.00;;;8.80;75.70;;;;;;6312453;28;20622;-77
2023/04/14 13:21:33;;;;;;;7.50;7.03;;;8.80;76.10;;;;;;6300711;28;20237;-79
2023/04/14 13:24:38;;;;;;;8.13;7.43;;;8.80;76.10;;;;;;6293008;28;20684;-79
2023/04/14 13:27:41;;;;;;;7.40;7.00;;;8.80;76.20;;;;;;6282377;28;20229;-79
2023/04/14 13:30:44;;;;;;;8.33;7.67;;;8.80;76.50;;;;;;6290811;28;20290;-79
2023/04/14 13:33:47;;;;;;;9.40;8.60;;;8.90;76.10;;;;;;6294555;28;20324;-80
2023/04/14 13:36:50;;;;;;;8.30;7.60;;;8.90;76.10;;;;;;6271549;28;20237;-81
2023/04/14 13:39:55;;;;;;;8.60;7.90;;;8.80;76.30;;;;;;6295561;28;20447;-78
2023/04/14 13:42:58;;;;;;;7.77;7.27;;;8.80;76.10;;;;;;6282578;28;20325;-79
2023/04/14 13:46:02;;;;;;;8.50;7.80;;;8.80;76.20;;;;;;6285369;28;20733;-80
2023/04/14 13:49:05;;;;;;;8.10;7.60;;;8.80;76.20;;;;;;6291988;28;20751;-79
2023/04/14 13:52:08;;;;;;;9.00;8.30;;;8.80;76.40;;;;;;6284011;28;20249;-76
2023/04/14 13:55:13;;;;;;;9.27;8.47;;;8.80;76.60;;;;;;6284712;28;20708;-79
2023/04/14 13:58:16;;;;;;;8.83;8.03;;;8.80;76.50;;;;;;6301617;28;20240;-80
2023/04/14 14:01:19;;;;;;;8.33;7.83;;;8.80;76.50;;;;;;6283151;28;20313;-80
2023/04/14 14:04:22;;;;;;;8.83;8.07;;;8.80;76.50;;;;;;6292970;28;20376;-76
2023/04/14 14:07:26;;;;;;;8.10;7.40;;;8.80;76.80;;;;;;6291578;28;20348;-78
2023/04/14 14:10:30;;;;;;;7.60;7.20;;;8.80;76.20;;;;;;6297616;28;20331;-79
2023/04/14 14:13:34;;;;;;;8.00;7.33;;;8.90;76.20;;;;;;6289258;28;20230;-78
2023/04/14 14:16:38;;;;;;;6.63;6.23;;;8.90;76.00;;;;;;6300036;28;21109;-80
2023/04/14 14:19:42;;;;;;;6.37;5.97;;;8.80;75.80;;;;;;6298968;28;20251;-78
2023/04/14 14:22:45;;;;;;;7.17;6.73;;;8.70;76.10;;;;;;6289311;28;20324;-79
2023/04/14 14:25:49;;;;;;;6.13;5.73;;;8.80;76.20;;;;;;6290779;28;20237;-79
2023/04/14 14:28:54;;;;;;;6.10;5.80;;;8.80;76.20;;;;;;6289907;28;20237;-80
2023/04/14 14:31:57;;;;;;;7.00;6.60;;;8.80;76.20;;;;;;6290787;28;20245;-79
2023/04/14 14:35:01;;;;;;;6.17;5.87;;;8.80;76.20;;;;;;6290632;28;20234;-79
2023/04/14 14:38:05;;;;;;;6.83;6.43;;;8.70;76.30;;;;;;6288860;28;20236;-79
2023/04/14 14:41:09;;;;;;;5.97;5.77;;;8.80;76.60;;;;;;6292481;28;20755;-80
2023/04/14 14:44:12;;;;;;;5.73;5.30;;;8.80;76.30;;;;;;6290092;28;20257;-79
2023/04/14 14:47:16;;;;;;;5.17;4.87;;;8.80;75.90;;;;;;6289724;28;20316;-79
2023/04/14 14:50:19;;;;;;;6.70;6.20;;;8.70;75.90;;;;;;6295409;28;20249;-78
2023/04/14 14:53:22;;;;;;;6.00;5.60;;;8.80;75.90;;;;;;6310438;28;20243;-75
2023/04/14 14:56:26;;;;;;;6.27;5.97;;;8.70;75.90;;;;;;6331449;28;20217;-75
2023/04/14 14:59:30;;;;;;;6.00;5.73;;;8.60;76.40;;;;;;6318657;28;20238;-77
2023/04/14 15:02:33;;;;;;;5.87;5.67;;;8.60;76.70;;;;;;6301611;28;20261;-79
2023/04/14 15:05:37;;;;;;;5.87;5.40;;;8.50;76.80;;;;;;6289220;28;20320;-82
2023/04/14 15:08:40;;;;;;;5.50;5.30;;;8.60;77.00;;;;;;6296774;28;20611;-80
2023/04/14 15:11:46;;;;;;;6.90;6.33;;;8.50;76.90;;;;;;6296618;28;20229;-78
2023/04/14 15:14:49;;;;;;;6.40;6.03;;;8.50;77.00;;;;;;6286723;28;20372;-82
2023/04/14 15:17:52;;;;;;;6.20;5.90;;;8.60;77.00;;;;;;6284296;28;20325;-78
2023/04/14 15:20:55;;;;;;;6.57;6.20;;;8.50;77.20;;;;;;6288402;28;20643;-80
2023/04/14 15:23:58;;;;;;;6.13;5.73;;;8.50;77.30;;;;;;6295432;28;20314;-81
2023/04/14 15:27:03;;;;;;;6.50;6.10;;;8.50;77.10;;;;;;6288655;28;20248;-79
2023/04/14 15:30:08;;;;;;;6.00;5.70;;;8.60;77.10;;;;;;6298851;28;20316;-78
2023/04/14 15:33:11;;;;;;;6.80;6.40;;;8.50;77.00;;;;;;6282638;28;20238;-79
2023/04/14 15:36:14;;;;;;;6.23;5.83;;;8.40;77.40;;;;;;6293032;28;20236;-79
2023/04/14 15:39:19;;;;;;;6.10;5.80;;;8.40;77.30;;;;;;6293206;28;20327;-78
2023/04/14 15:42:24;;;;;;;6.57;6.17;;;8.40;77.50;;;;;;6284418;28;20647;-79
2023/04/14 15:45:27;;;;;;;6.33;5.93;;;8.50;77.60;;;;;;6286949;28;20601;-78
2023/04/14 15:48:30;;;;;;;6.30;5.90;;;8.40;77.70;;;;;;6283660;28;20260;-80
2023/04/14 15:51:33;;;;;;;6.50;6.10;;;8.40;78.00;;;;;;6292823;28;20245;-79
2023/04/14 15:54:37;;;;;;;5.67;5.43;;;8.40;77.90;;;;;;6287796;28;20320;-83
2023/04/14 15:57:41;;;;;;;5.87;5.60;;;8.40;78.00;;;;;;6288024;28;20378;-78
2023/04/14 16:00:44;;;;;;;6.10;5.70;;;8.40;77.90;;;;;;6280240;28;20493;-78
2023/04/14 16:03:47;;;;;;;5.77;5.40;;;8.40;78.00;;;;;;6286795;28;20252;-80
2023/04/14 16:06:54;;;;;;;5.80;5.50;;;8.40;78.10;;;;;;6289438;28;20386;-79
2023/04/14 16:09:57;;;;;;;6.33;6.03;;;8.40;78.10;;;;;;6290251;28;20225;-80
2023/04/14 16:13:02;;;;;;;6.30;6.00;;;8.40;78.20;;;;;;6288012;28;20321;-79
2023/04/14 16:16:05;;;;;;;5.93;5.63;;;8.40;78.20;;;;;;6291122;28;20230;-79